Terminal Aerodrome Forecast
Issued by NWS Amarillo, TX

Home | Current Version | Previous Version | Text Only | Print | Product List | Glossary On
Versions: 1 2 3 4 5 6 7 8 9 10 11 12 13 14 15 16 17 18 19
000
FTUS44 KAMA 051600 AAA
TAFAMA
TAF AMD
KAMA 051651Z 0517/0612 17011KT P6SM VCSH SCT020 BKN050
     FM052000 16020G34KT P6SM VCSH SCT025 BKN080
      TEMPO 0523/0602 5SM +TSRA BKN020CB
     FM060300 16015KT P6SM SCT008 BKN025=

USA.gov is the U.S. government's official web portal to all federal, state and local government web resources and services.